N127RC KCGF-KDTW
Flight info
| Callsign | N127RC |
|---|---|
| Flight time | N/A |
| Altitude | 16000 |
| Route | BONZZ KLYNK3 |
| Aircraft | SF50/L-SDGRWY/L |
Departure
| Time | 2026-04-18 01:26 |
|---|---|
| Airport | Cuyahoga County Airport (KCGF) |
Arrival
| Time | N/A |
|---|---|
| Airport | Detroit Metropolitan Wayne County Airport (KDTW) |
| Time | Latitude | Longitude | Altitude | Speed | Heading |
|---|---|---|---|---|---|
| 2026-04-18 01:18 | 41.56606 | -81.48938 | 867 ft | 0 kts | 328° |
| 2026-04-18 01:23 | 41.56608 | -81.48938 | 867 ft | 2 kts | 50° |
| 2026-04-18 01:23 | 41.56588 | -81.48878 | 869 ft | 15 kts | 125° |
| 2026-04-18 01:24 | 41.56501 | -81.48857 | 869 ft | 17 kts | 231° |
| 2026-04-18 01:24 | 41.56387 | -81.49048 | 872 ft | 36 kts | 228° |
| 2026-04-18 01:24 | 41.56190 | -81.49349 | 870 ft | 27 kts | 228° |
| 2026-04-18 01:24 | 41.56136 | -81.49408 | 869 ft | 7 kts | 167° |
| 2026-04-18 01:25 | 41.56134 | -81.49407 | 869 ft | 1 kts | 154° |
| 2026-04-18 01:25 | 41.56091 | -81.49362 | 867 ft | 15 kts | 124° |
| 2026-04-18 01:25 | 41.56157 | -81.49197 | 868 ft | 33 kts | 47° |
| 2026-04-18 01:25 | 41.56474 | -81.48699 | 934 ft | 100 kts | 49° |
| 2026-04-18 01:26 | 41.56911 | -81.48029 | 1548 ft | 89 kts | 48° |
| 2026-04-18 01:26 | 41.57334 | -81.47396 | 1894 ft | 94 kts | 50° |
| 2026-04-18 01:26 | 41.57813 | -81.46750 | 2209 ft | 99 kts | 49° |
| 2026-04-18 01:26 | 41.58361 | -81.46009 | 2616 ft | 119 kts | 49° |
| 2026-04-18 01:27 | 41.58968 | -81.45188 | 3351 ft | 132 kts | 49° |
| 2026-04-18 01:27 | 41.59630 | -81.44262 | 4213 ft | 127 kts | 50° |
| 2026-04-18 01:27 | 41.60307 | -81.43637 | 4854 ft | 130 kts | 9° |
| 2026-04-18 01:27 | 41.61007 | -81.44200 | 5510 ft | 121 kts | 285° |
| 2026-04-18 01:28 | 41.61261 | -81.45233 | 6148 ft | 117 kts | 290° |
| 2026-04-18 01:28 | 41.61574 | -81.46237 | 6746 ft | 116 kts | 288° |
| 2026-04-18 01:28 | 41.61878 | -81.47248 | 7377 ft | 113 kts | 288° |
| 2026-04-18 01:28 | 41.62172 | -81.48202 | 7963 ft | 110 kts | 287° |
| 2026-04-18 01:29 | 41.62458 | -81.49136 | 8549 ft | 108 kts | 289° |
| 2026-04-18 01:29 | 41.62762 | -81.50156 | 8657 ft | 125 kts | 288° |
| 2026-04-18 01:29 | 41.63071 | -81.51246 | 8642 ft | 132 kts | 288° |
| 2026-04-18 01:29 | 41.63427 | -81.52490 | 8643 ft | 157 kts | 289° |
| 2026-04-18 01:30 | 41.63846 | -81.53989 | 8647 ft | 187 kts | 288° |
| 2026-04-18 01:30 | 41.64305 | -81.55660 | 8641 ft | 195 kts | 288° |
| 2026-04-18 01:30 | 41.64780 | -81.57379 | 8630 ft | 199 kts | 288° |
| 2026-04-18 01:30 | 41.65260 | -81.59118 | 8632 ft | 199 kts | 288° |
| 2026-04-18 01:31 | 41.65819 | -81.60796 | 8621 ft | 200 kts | 305° |
| 2026-04-18 01:31 | 41.66981 | -81.61848 | 8618 ft | 206 kts | 334° |
| 2026-04-18 01:31 | 41.68315 | -81.62563 | 8631 ft | 207 kts | 335° |
| 2026-04-18 01:31 | 41.69658 | -81.63277 | 8633 ft | 208 kts | 335° |
| 2026-04-18 01:32 | 41.71004 | -81.63981 | 8631 ft | 208 kts | 335° |
| 2026-04-18 01:32 | 41.72349 | -81.64693 | 8626 ft | 207 kts | 336° |
| 2026-04-18 01:32 | 41.73683 | -81.65403 | 8623 ft | 206 kts | 335° |
| 2026-04-18 01:32 | 41.75075 | -81.65881 | 8626 ft | 209 kts | 349° |
| 2026-04-18 01:33 | 41.76518 | -81.66148 | 8628 ft | 211 kts | 349° |
| 2026-04-18 01:33 | 41.77975 | -81.66417 | 8629 ft | 211 kts | 349° |
| 2026-04-18 01:33 | 41.79427 | -81.66684 | 8629 ft | 211 kts | 349° |
| 2026-04-18 01:33 | 41.80881 | -81.66952 | 8629 ft | 210 kts | 349° |
| 2026-04-18 01:34 | 41.82329 | -81.67221 | 8624 ft | 210 kts | 349° |
| 2026-04-18 01:34 | 41.83775 | -81.67487 | 8625 ft | 210 kts | 349° |
| 2026-04-18 01:34 | 41.85202 | -81.67868 | 8614 ft | 206 kts | 333° |
| 2026-04-18 01:34 | 41.86122 | -81.69138 | 8605 ft | 201 kts | 290° |
| 2026-04-18 01:35 | 41.86057 | -81.71002 | 8606 ft | 198 kts | 243° |
| 2026-04-18 01:35 | 41.85007 | -81.72135 | 8610 ft | 200 kts | 200° |
| 2026-04-18 01:35 | 41.83665 | -81.72521 | 8617 ft | 201 kts | 192° |
| 2026-04-18 01:35 | 41.82308 | -81.72938 | 8611 ft | 199 kts | 205° |
| 2026-04-18 01:36 | 41.81288 | -81.74142 | 8614 ft | 196 kts | 231° |
| 2026-04-18 01:36 | 41.80428 | -81.75572 | 8618 ft | 198 kts | 232° |
| 2026-04-18 01:36 | 41.79570 | -81.77015 | 8617 ft | 197 kts | 235° |
| 2026-04-18 01:36 | 41.79062 | -81.78717 | 8613 ft | 198 kts | 255° |
| 2026-04-18 01:37 | 41.78742 | -81.80515 | 8614 ft | 198 kts | 258° |
| 2026-04-18 01:37 | 41.78662 | -81.82351 | 8612 ft | 200 kts | 269° |
| 2026-04-18 01:37 | 41.78684 | -81.84247 | 8614 ft | 200 kts | 269° |
| 2026-04-18 01:37 | 41.78709 | -81.86083 | 8613 ft | 198 kts | 270° |
| 2026-04-18 01:38 | 41.78735 | -81.87920 | 8613 ft | 197 kts | 270° |
| 2026-04-18 01:38 | 41.78758 | -81.89752 | 8607 ft | 197 kts | 269° |
| 2026-04-18 01:38 | 41.78329 | -81.91423 | 8606 ft | 198 kts | 229° |
| 2026-04-18 01:38 | 41.77140 | -81.92335 | 8611 ft | 201 kts | 200° |
| 2026-04-18 01:39 | 41.75721 | -81.92920 | 8620 ft | 224 kts | 199° |
| 2026-04-18 01:39 | 41.74208 | -81.93545 | 8630 ft | 232 kts | 199° |
| 2026-04-18 01:39 | 41.72631 | -81.94135 | 8629 ft | 234 kts | 193° |
| 2026-04-18 01:39 | 41.71000 | -81.94458 | 8630 ft | 236 kts | 189° |
| 2026-04-18 01:40 | 41.69375 | -81.94727 | 8624 ft | 237 kts | 189° |
| 2026-04-18 01:40 | 41.67742 | -81.94987 | 8624 ft | 236 kts | 189° |
| 2026-04-18 01:40 | 41.66109 | -81.95241 | 8623 ft | 236 kts | 188° |
| 2026-04-18 01:40 | 41.64481 | -81.95496 | 8623 ft | 236 kts | 188° |
| 2026-04-18 01:41 | 41.62832 | -81.95762 | 8620 ft | 237 kts | 189° |
| 2026-04-18 01:41 | 41.61152 | -81.96032 | 8622 ft | 249 kts | 189° |
| 2026-04-18 01:41 | 41.59403 | -81.96186 | 8618 ft | 257 kts | 177° |
| 2026-04-18 01:41 | 41.57635 | -81.95660 | 8617 ft | 262 kts | 166° |
| 2026-04-18 01:42 | 41.55892 | -81.94959 | 8625 ft | 263 kts | 165° |
| 2026-04-18 01:42 | 41.54425 | -81.94352 | 8624 ft | 263 kts | 165° |
| 2026-04-18 01:42 | 41.52923 | -81.93727 | 8625 ft | 262 kts | 165° |
| 2026-04-18 01:42 | 41.51193 | -81.93001 | 8624 ft | 262 kts | 165° |
| 2026-04-18 01:43 | 41.49454 | -81.92279 | 8626 ft | 263 kts | 165° |
| 2026-04-18 01:43 | 41.47706 | -81.91560 | 8606 ft | 262 kts | 165° |
| 2026-04-18 01:43 | 41.45960 | -81.90846 | 8606 ft | 263 kts | 165° |
| 2026-04-18 01:43 | 41.44206 | -81.90125 | 8607 ft | 263 kts | 165° |
| 2026-04-18 01:44 | 41.42453 | -81.89408 | 8608 ft | 264 kts | 165° |
| 2026-04-18 01:44 | 41.40496 | -81.88606 | 8607 ft | 264 kts | 165° |
| 2026-04-18 01:44 | 41.38935 | -81.87965 | 8609 ft | 265 kts | 165° |
| 2026-04-18 01:44 | 41.37169 | -81.87241 | 8612 ft | 266 kts | 165° |
| 2026-04-18 01:45 | 41.35396 | -81.86520 | 8611 ft | 267 kts | 165° |
| 2026-04-18 01:45 | 41.33595 | -81.85785 | 8613 ft | 267 kts | 165° |
| 2026-04-18 01:45 | 41.31816 | -81.85062 | 8613 ft | 267 kts | 165° |
| 2026-04-18 01:45 | 41.30041 | -81.84341 | 8613 ft | 267 kts | 165° |
| 2026-04-18 01:46 | 41.28274 | -81.83634 | 8599 ft | 264 kts | 165° |
| 2026-04-18 01:46 | 41.26515 | -81.82917 | 8603 ft | 266 kts | 165° |
| 2026-04-18 01:46 | 41.24714 | -81.82180 | 8603 ft | 266 kts | 165° |
| 2026-04-18 01:46 | 41.22942 | -81.81455 | 8603 ft | 267 kts | 165° |
| 2026-04-18 01:47 | 41.21166 | -81.80730 | 8601 ft | 267 kts | 165° |
| 2026-04-18 01:47 | 41.19389 | -81.80004 | 8603 ft | 267 kts | 165° |
| 2026-04-18 01:47 | 41.17613 | -81.79277 | 8602 ft | 267 kts | 165° |
| 2026-04-18 01:47 | 41.15834 | -81.78550 | 8604 ft | 267 kts | 165° |
| 2026-04-18 01:48 | 41.14057 | -81.77831 | 8600 ft | 267 kts | 165° |
| 2026-04-18 01:48 | 41.12281 | -81.77110 | 8603 ft | 267 kts | 165° |
| 2026-04-18 01:48 | 41.10530 | -81.76393 | 8606 ft | 267 kts | 165° |
| 2026-04-18 01:48 | 41.08728 | -81.75654 | 8609 ft | 267 kts | 165° |
| 2026-04-18 01:49 | 41.06976 | -81.74938 | 8610 ft | 267 kts | 165° |
| 2026-04-18 01:49 | 41.05192 | -81.74207 | 8615 ft | 268 kts | 165° |
| 2026-04-18 01:49 | 41.03413 | -81.73475 | 8614 ft | 268 kts | 165° |
| 2026-04-18 01:49 | 41.01607 | -81.72740 | 8614 ft | 269 kts | 165° |
| 2026-04-18 01:50 | 40.99845 | -81.72019 | 8613 ft | 268 kts | 165° |
| 2026-04-18 01:50 | 40.98003 | -81.71271 | 8616 ft | 268 kts | 165° |
| 2026-04-18 01:50 | 40.96252 | -81.70563 | 8619 ft | 268 kts | 165° |
| 2026-04-18 01:50 | 40.94490 | -81.69847 | 8617 ft | 268 kts | 165° |
| 2026-04-18 01:51 | 40.92711 | -81.69128 | 8618 ft | 268 kts | 165° |
| 2026-04-18 01:51 | 40.90896 | -81.68769 | 8611 ft | 264 kts | 187° |
| 2026-04-18 01:51 | 40.89265 | -81.69755 | 8612 ft | 261 kts | 223° |
| 2026-04-18 01:51 | 40.88386 | -81.71805 | 8616 ft | 260 kts | 257° |
| 2026-04-18 01:52 | 40.88587 | -81.74157 | 8618 ft | 263 kts | 292° |
| 2026-04-18 01:52 | 40.89804 | -81.75928 | 8635 ft | 267 kts | 327° |
| 2026-04-18 01:52 | 40.91564 | -81.76693 | 8639 ft | 268 kts | 346° |
| 2026-04-18 01:52 | 40.93401 | -81.77128 | 8651 ft | 268 kts | 348° |
| 2026-04-18 01:53 | 40.95243 | -81.77529 | 8651 ft | 269 kts | 349° |
| 2026-04-18 01:53 | 40.97134 | -81.77937 | 8660 ft | 269 kts | 349° |
| 2026-04-18 01:53 | 40.98984 | -81.78338 | 8670 ft | 269 kts | 349° |
| 2026-04-18 01:54 | 41.02663 | -81.79200 | 8663 ft | 266 kts | 341° |
| 2026-04-18 01:54 | 41.04091 | -81.80589 | 9019 ft | 247 kts | 307° |
| 2026-04-18 01:54 | 41.05039 | -81.82397 | 9582 ft | 236 kts | 304° |
| 2026-04-18 01:54 | 41.06081 | -81.84066 | 9910 ft | 239 kts | 311° |
| 2026-04-18 01:55 | 41.07270 | -81.85625 | 10201 ft | 241 kts | 314° |
| 2026-04-18 01:55 | 41.08461 | -81.87195 | 10491 ft | 242 kts | 312° |
| 2026-04-18 01:55 | 41.09657 | -81.88853 | 10578 ft | 251 kts | 311° |
| 2026-04-18 01:55 | 41.10867 | -81.90528 | 10580 ft | 257 kts | 312° |
| 2026-04-18 01:56 | 41.12114 | -81.92233 | 10721 ft | 255 kts | 312° |
| 2026-04-18 01:56 | 41.13311 | -81.93878 | 11185 ft | 244 kts | 312° |
| 2026-04-18 01:56 | 41.14578 | -81.95624 | 11460 ft | 246 kts | 311° |
| 2026-04-18 01:56 | 41.15686 | -81.97149 | 11700 ft | 247 kts | 311° |
| 2026-04-18 01:57 | 41.16894 | -81.98811 | 11954 ft | 249 kts | 311° |
| 2026-04-18 01:57 | 41.18104 | -82.00477 | 12213 ft | 250 kts | 311° |
| 2026-04-18 01:57 | 41.19314 | -82.02142 | 12435 ft | 251 kts | 311° |
| 2026-04-18 01:57 | 41.20546 | -82.03841 | 12654 ft | 252 kts | 311° |
| 2026-04-18 01:58 | 41.21760 | -82.05516 | 12855 ft | 253 kts | 311° |
| 2026-04-18 01:58 | 41.22984 | -82.07210 | 13052 ft | 254 kts | 311° |
| 2026-04-18 01:58 | 41.24218 | -82.08913 | 13233 ft | 255 kts | 311° |
| 2026-04-18 01:58 | 41.25458 | -82.10628 | 13417 ft | 255 kts | 311° |
| 2026-04-18 01:59 | 41.26675 | -82.12311 | 13581 ft | 256 kts | 311° |
| 2026-04-18 01:59 | 41.27916 | -82.14027 | 13741 ft | 257 kts | 311° |
| 2026-04-18 01:59 | 41.29108 | -82.15679 | 13888 ft | 258 kts | 311° |
| 2026-04-18 01:59 | 41.30352 | -82.17402 | 14010 ft | 259 kts | 311° |
| 2026-04-18 02:00 | 41.31599 | -82.19129 | 14135 ft | 259 kts | 311° |
| 2026-04-18 02:00 | 41.32849 | -82.20860 | 14258 ft | 259 kts | 311° |
| 2026-04-18 02:00 | 41.34099 | -82.22595 | 14378 ft | 259 kts | 311° |
| 2026-04-18 02:00 | 41.35341 | -82.24320 | 14489 ft | 260 kts | 311° |
| 2026-04-18 02:01 | 41.36630 | -82.26111 | 14597 ft | 260 kts | 311° |
| 2026-04-18 02:01 | 41.37843 | -82.27802 | 14667 ft | 260 kts | 311° |
| 2026-04-18 02:01 | 41.39107 | -82.29560 | 14764 ft | 261 kts | 311° |
| 2026-04-18 02:01 | 41.40364 | -82.31309 | 14860 ft | 261 kts | 311° |
| 2026-04-18 02:02 | 41.41617 | -82.33053 | 14949 ft | 261 kts | 311° |
| 2026-04-18 02:02 | 41.42876 | -82.34807 | 15048 ft | 261 kts | 311° |
| 2026-04-18 02:02 | 41.44156 | -82.36593 | 15145 ft | 262 kts | 311° |
| 2026-04-18 02:02 | 41.45370 | -82.38282 | 14946 ft | 245 kts | 311° |
| 2026-04-18 02:03 | 41.46551 | -82.39929 | 13533 ft | 249 kts | 311° |
| 2026-04-18 02:03 | 41.47342 | -82.41040 | 12541 ft | 250 kts | 311° |
| 2026-04-18 02:03 | 41.48879 | -82.43179 | 12023 ft | 230 kts | 311° |
| 2026-04-18 02:03 | 41.50013 | -82.44774 | 12031 ft | 242 kts | 311° |
| 2026-04-18 02:04 | 41.51204 | -82.46441 | 12029 ft | 247 kts | 311° |
| 2026-04-18 02:04 | 41.52389 | -82.48100 | 12028 ft | 249 kts | 311° |
| 2026-04-18 02:04 | 41.53572 | -82.49753 | 12041 ft | 251 kts | 311° |
| 2026-04-18 02:04 | 41.54473 | -82.51016 | 12044 ft | 251 kts | 311° |